Time,TemperatureF,DewpointF,PressureIn,WindDirection,WindDirectionDegrees,WindSpeedMPH,WindSpeedGustMPH,Humidity,HourlyPrecipIn,Conditions,Clouds,dailyrainin,SoftwareType,DateUTC
2013-10-09 00:01:00,57.6,49.0,29.53,ENE,72,6.9,6.9,73,0.00,CLR,,0.00,WeatherDisplay:10.37,2013-10-09 04:01:00,
2013-10-09 00:02:00,57.6,49.0,29.53,NE,35,5.8,5.8,73,0.00,CLR,,0.00,WeatherDisplay:10.37,2013-10-09 04:02:00,
2013-10-09 00:07:00,57.5,48.9,29.53,North,0,5.8,5.8,73,0.00,CLR,,0.00,WeatherDisplay:10.37,2013-10-09 04:07:00,
2013-10-09 00:12:00,57.5,48.9,29.53,NNE,13,6.9,6.9,73,0.00,CLR,,0.00,WeatherDisplay:10.37,2013-10-09 04:12:00,
2013-10-09 00:17:00,57.5,48.9,29.53,NE,35,3.5,3.5,73,0.00,CLR,,0.00,WeatherDisplay:10.37,2013-10-09 04:17:00,
2013-10-09 00:22:00,57.5,48.9,29.53,North,0,5.8,5.8,73,0.00,CLR,,0.00,WeatherDisplay:10.37,2013-10-09 04:22:00,
2013-10-09 00:27:00,57.5,48.9,29.53,ENE,68,5.8,5.8,73,0.00,CLR,,0.00,WeatherDisplay:10.37,2013-10-09 04:27:00,
2013-10-09 00:32:00,57.3,49.1,29.53,ESE,103,10.4,10.4,74,0.00,CLR,,0.00,WeatherDisplay:10.37,2013-10-09 04:32:00,
2013-10-09 00:37:00,57.3,49.1,29.53,NE,47,5.8,5.8,74,0.00,CLR,,0.00,WeatherDisplay:10.37,2013-10-09 04:37:00,
2013-10-09 00:42:00,57.2,49.0,29.52,NE,42,4.6,4.6,74,0.00,CLR,,0.00,WeatherDisplay:10.37,2013-10-09 04:42:00,
2013-10-09 00:47:00,57.2,49.0,29.52,North,4,6.9,6.9,74,0.00,CLR,,0.00,WeatherDisplay:10.37,2013-10-09 04:47:00,
2013-10-09 00:52:00,57.2,49.3,29.52,NE,47,6.0,6.0,75,0.00,CLR,,0.00,WeatherDisplay:10.37,2013-10-09 04:52:00,
2013-10-09 00:57:00,57.2,49.3,29.52,NNE,20,3.5,3.5,75,0.00,CLR,,0.00,WeatherDisplay:10.37,2013-10-09 04:57:00,
2013-10-09 01:02:00,57.2,49.3,29.52,NE,49,8.1,8.1,75,0.00,CLR,,0.00,WeatherDisplay:10.37,2013-10-09 05:02:00,
2013-10-09 01:07:00,57.2,49.0,29.52,NE,54,5.8,5.8,74,0.00,CLR,,0.00,WeatherDisplay:10.37,2013-10-09 05:07:00,
2013-10-09 01:12:00,57.2,49.3,29.52,NE,40,5.8,7.8,75,0.00,CLR,,0.00,WeatherDisplay:10.37,2013-10-09 05:12:00,
2013-10-09 01:17:00,57.2,49.0,29.52,NNE,23,10.4,10.4,74,0.00,CLR,,0.00,WeatherDisplay:10.37,2013-10-09 05:17:00,
2013-10-09 01:22:00,57.2,49.3,29.52,ENE,69,3.5,3.5,75,0.00,CLR,,0.00,WeatherDisplay:10.37,2013-10-09 05:22:00,
2013-10-09 01:27:00,57.2,49.3,29.52,ENE,72,3.5,3.5,75,0.00,CLR,,0.00,WeatherDisplay:10.37,2013-10-09 05:27:00,
2013-10-09 01:32:00,57.0,49.2,29.52,NNE,16,2.3,2.3,75,0.00,CLR,,0.00,WeatherDisplay:10.37,2013-10-09 05:32:00,
2013-10-09 01:37:00,57.0,49.2,29.52,NE,52,5.8,5.8,75,0.00,CLR,,0.00,WeatherDisplay:10.37,2013-10-09 05:37:00,
2013-10-09 01:42:00,57.2,49.3,29.52,NNE,17,5.8,5.8,75,0.00,CLR,,0.00,WeatherDisplay:10.37,2013-10-09 05:42:00,
2013-10-09 01:47:00,57.0,49.2,29.52,NNE,16,3.5,3.5,75,0.00,CLR,,0.00,WeatherDisplay:10.37,2013-10-09 05:47:00,
2013-10-09 01:52:00,57.0,49.2,29.52,North,6,3.5,3.5,75,0.00,CLR,,0.00,WeatherDisplay:10.37,2013-10-09 05:52:00,
2013-10-09 01:57:00,56.9,49.4,29.52,NE,38,2.3,2.3,76,0.00,CLR,,0.00,WeatherDisplay:10.37,2013-10-09 05:57:00,
2013-10-09 02:02:00,56.9,49.4,29.52,NNE,18,3.5,3.5,76,0.00,CLR,,0.00,WeatherDisplay:10.37,2013-10-09 06:02:00,
2013-10-09 02:07:00,56.9,49.4,29.52,NNE,17,5.8,5.8,76,0.00,CLR,,0.00,WeatherDisplay:10.37,2013-10-09 06:07:00,
2013-10-09 02:12:00,56.7,49.2,29.52,NE,35,5.8,5.8,76,0.00,CLR,,0.00,WeatherDisplay:10.37,2013-10-09 06:12:00,
2013-10-09 02:17:00,56.7,49.2,29.52,NNE,31,5.8,5.8,76,0.00,CLR,,0.00,WeatherDisplay:10.37,2013-10-09 06:17:00,
2013-10-09 02:22:00,56.6,49.1,29.52,North,8,5.8,5.8,76,0.00,CLR,,0.00,WeatherDisplay:10.37,2013-10-09 06:22:00,
2013-10-09 02:27:00,56.6,49.5,29.51,NE,45,3.5,3.5,77,0.00,CLR,,0.00,WeatherDisplay:10.37,2013-10-09 06:27:00,
2013-10-09 02:32:00,56.5,49.0,29.51,NNE,23,10.4,10.4,76,0.00,CLR,,0.00,WeatherDisplay:10.37,2013-10-09 06:32:00,
2013-10-09 02:37:00,56.5,49.0,29.51,NE,38,6.9,6.9,76,0.00,CLR,,0.00,WeatherDisplay:10.37,2013-10-09 06:37:00,
2013-10-09 02:42:00,56.5,49.4,29.50,ESE,119,6.9,6.9,77,0.00,CLR,,0.00,WeatherDisplay:10.37,2013-10-09 06:42:00,
2013-10-09 02:47:00,56.3,49.2,29.50,NNE,24,5.8,5.8,77,0.00,CLR,,0.00,WeatherDisplay:10.37,2013-10-09 06:47:00,
2013-10-09 02:52:00,56.3,49.2,29.50,NNE,23,8.1,8.1,77,0.00,CLR,,0.00,WeatherDisplay:10.37,2013-10-09 06:52:00,
2013-10-09 02:57:00,56.3,49.2,29.49,ENE,62,6.9,6.9,77,0.00,CLR,,0.00,WeatherDisplay:10.37,2013-10-09 06:57:00,
2013-10-09 03:02:00,56.2,48.7,29.49,NNE,30,0.0,0.0,76,0.00,CLR,,0.00,WeatherDisplay:10.37,2013-10-09 07:02:00,
2013-10-09 03:07:00,56.2,48.7,29.49,NNE,28,4.6,4.6,76,0.00,CLR,,0.00,WeatherDisplay:10.37,2013-10-09 07:07:00,
2013-10-09 03:12:00,56.2,48.7,29.50,NNE,31,0.0,0.0,76,0.00,CLR,,0.00,WeatherDisplay:10.37,2013-10-09 07:12:00,
2013-10-09 03:17:00,56.2,48.7,29.50,NNE,30,6.9,6.9,76,0.00,CLR,,0.00,WeatherDisplay:10.37,2013-10-09 07:17:00,
2013-10-09 03:22:00,56.2,49.1,29.50,NE,38,3.5,3.5,77,0.00,CLR,,0.00,WeatherDisplay:10.37,2013-10-09 07:22:00,
2013-10-09 03:27:00,56.2,48.7,29.49,North,3,6.9,6.9,76,0.00,CLR,,0.00,WeatherDisplay:10.37,2013-10-09 07:27:00,
2013-10-09 03:32:00,56.2,48.7,29.49,NE,54,8.1,8.1,76,0.00,CLR,,0.00,WeatherDisplay:10.37,2013-10-09 07:32:00,
2013-10-09 03:37:00,56.2,48.7,29.49,North,357,4.0,4.0,76,0.00,CLR,,0.00,WeatherDisplay:10.37,2013-10-09 07:37:00,
2013-10-09 03:42:00,56.2,48.7,29.48,NE,37,5.8,5.8,76,0.00,CLR,,0.00,WeatherDisplay:10.37,2013-10-09 07:42:00,
2013-10-09 03:47:00,56.3,48.5,29.48,North,0,11.5,11.5,75,0.00,CLR,,0.00,WeatherDisplay:10.37,2013-10-09 07:47:00,
2013-10-09 03:52:00,56.3,48.5,29.48,NNE,20,6.9,6.9,75,0.00,CLR,,0.00,WeatherDisplay:10.37,2013-10-09 07:52:00,
2013-10-09 03:58:00,56.3,48.5,29.49,North,357,3.5,3.5,75,0.00,CLR,,0.00,WeatherDisplay:10.37,2013-10-09 07:58:00,
2013-10-09 04:03:00,56.5,48.7,29.49,ENE,72,5.8,5.8,75,0.00,CLR,,0.00,WeatherDisplay:10.37,2013-10-09 08:03:00,
2013-10-09 04:08:00,56.5,49.0,29.49,NNW,346,5.8,5.8,76,0.00,CLR,,0.00,WeatherDisplay:10.37,2013-10-09 08:08:00,
2013-10-09 04:13:00,56.5,49.0,29.49,North,353,11.0,11.0,76,0.00,CLR,,0.00,WeatherDisplay:10.37,2013-10-09 08:13:00,
2013-10-09 04:18:00,56.5,49.0,29.49,NW,320,6.9,6.9,76,0.00,CLR,,0.00,WeatherDisplay:10.37,2013-10-09 08:18:00,
2013-10-09 04:23:00,56.5,49.0,29.49,NNW,330,5.0,5.0,76,0.00,CLR,,0.00,WeatherDisplay:10.37,2013-10-09 08:23:00,
2013-10-09 04:28:00,56.6,48.8,29.48,NE,45,5.8,5.8,75,0.00,CLR,,0.00,WeatherDisplay:10.37,2013-10-09 08:28:00,
2013-10-09 04:33:00,56.7,48.9,29.48,ENE,62,3.5,3.5,75,0.00,CLR,,0.00,WeatherDisplay:10.37,2013-10-09 08:33:00,
2013-10-09 04:38:00,56.7,48.9,29.48,ENE,66,10.4,10.4,75,0.00,CLR,,0.00,WeatherDisplay:10.37,2013-10-09 08:38:00,
2013-10-09 04:43:00,56.9,49.1,29.48,NE,44,6.9,6.9,75,0.00,CLR,,0.00,WeatherDisplay:10.37,2013-10-09 08:43:00,
2013-10-09 04:48:00,56.9,49.1,29.48,North,352,3.0,3.0,75,0.00,CLR,,0.00,WeatherDisplay:10.37,2013-10-09 08:48:00,
2013-10-09 04:53:00,57.0,49.2,29.48,North,11,11.5,11.5,75,0.00,CLR,,0.00,WeatherDisplay:10.37,2013-10-09 08:53:00,
2013-10-09 04:58:00,57.0,49.2,29.48,NNE,31,4.0,4.0,75,0.00,CLR,,0.00,WeatherDisplay:10.37,2013-10-09 08:58:00,
2013-10-09 05:03:00,57.0,49.5,29.48,NNE,25,8.1,8.1,76,0.00,CLR,,0.00,WeatherDisplay:10.37,2013-10-09 09:03:00,
2013-10-09 05:08:00,57.0,49.5,29.48,ENE,68,3.5,3.5,76,0.00,CLR,,0.00,WeatherDisplay:10.37,2013-10-09 09:08:00,
2013-10-09 05:13:00,56.9,49.4,29.49,NE,34,3.5,3.5,76,0.00,CLR,,0.00,WeatherDisplay:10.37,2013-10-09 09:13:00,
2013-10-09 05:18:00,56.7,49.2,29.49,NNE,27,8.1,8.1,76,0.00,CLR,,0.00,WeatherDisplay:10.37,2013-10-09 09:18:00,
2013-10-09 05:23:00,56.7,49.6,29.49,NNE,21,1.1,1.1,77,0.00,CLR,,0.00,WeatherDisplay:10.37,2013-10-09 09:23:00,
2013-10-09 05:28:00,56.6,49.5,29.49,North,0,3.5,3.5,77,0.00,CLR,,0.00,WeatherDisplay:10.37,2013-10-09 09:28:00,
2013-10-09 05:33:00,56.5,49.4,29.49,NNE,24,0.0,0.1,77,0.00,CLR,,0.00,WeatherDisplay:10.37,2013-10-09 09:33:00,
2013-10-09 05:38:00,56.5,49.7,29.49,North,349,1.1,0.0,78,0.00,CLR,,0.00,WeatherDisplay:10.37,2013-10-09 09:38:00,
2013-10-09 05:43:00,56.3,49.5,29.50,NNE,20,6.9,6.9,78,0.00,CLR,,0.00,WeatherDisplay:10.37,2013-10-09 09:43:00,
2013-10-09 05:48:00,56.3,49.9,29.50,North,11,11.5,11.5,79,0.00,CLR,,0.00,WeatherDisplay:10.37,2013-10-09 09:48:00,
2013-10-09 05:53:00,56.2,49.8,29.50,NNW,336,3.5,3.5,79,0.00,CLR,,0.00,WeatherDisplay:10.37,2013-10-09 09:53:00,
2013-10-09 05:58:00,56.2,49.4,29.49,North,353,4.6,4.6,78,0.00,CLR,,0.00,WeatherDisplay:10.37,2013-10-09 09:58:00,
2013-10-09 06:03:00,56.2,49.4,29.49,NE,47,2.3,2.3,78,0.00,CLR,,0.00,WeatherDisplay:10.37,2013-10-09 10:03:00,
2013-10-09 06:08:00,56.3,49.5,29.49,North,0,4.6,4.6,78,0.00,CLR,,0.00,WeatherDisplay:10.37,2013-10-09 10:08:00,
2013-10-09 06:13:00,56.3,49.5,29.49,North,4,6.9,6.9,78,0.00,CLR,,0.00,WeatherDisplay:10.37,2013-10-09 10:13:00,
2013-10-09 06:18:00,56.3,49.5,29.49,North,0,8.1,8.1,78,0.00,CLR,,0.00,WeatherDisplay:10.37,2013-10-09 10:18:00,
2013-10-09 06:23:00,56.3,49.5,29.49,East,92,3.5,3.5,78,0.00,CLR,,0.00,WeatherDisplay:10.37,2013-10-09 10:23:00,
2013-10-09 06:28:00,56.3,49.9,29.50,NE,41,3.5,3.8,79,0.00,CLR,,0.00,WeatherDisplay:10.37,2013-10-09 10:28:00,
2013-10-09 06:33:00,56.3,50.2,29.50,NE,44,10.4,10.4,80,0.00,CLR,,0.00,WeatherDisplay:10.37,2013-10-09 10:33:00,
2013-10-09 06:38:00,56.2,50.4,29.50,East,83,6.9,6.9,81,0.00,CLR,,0.00,WeatherDisplay:10.37,2013-10-09 10:38:00,
2013-10-09 06:43:00,56.0,50.3,29.50,NE,49,1.1,1.3,81,0.00,CLR,,0.00,WeatherDisplay:10.37,2013-10-09 10:43:00,
2013-10-09 06:48:00,55.9,50.5,29.50,NE,51,3.5,3.5,82,0.00,CLR,,0.00,WeatherDisplay:10.37,2013-10-09 10:48:00,
2013-10-09 06:53:00,55.9,50.5,29.50,North,8,3.5,3.5,82,0.00,CLR,,0.00,WeatherDisplay:10.37,2013-10-09 10:53:00,
2013-10-09 06:58:00,55.7,50.3,29.49,NNE,32,8.1,8.1,82,0.00,CLR,,0.00,WeatherDisplay:10.37,2013-10-09 10:58:00,
2013-10-09 07:03:00,55.7,50.6,29.49,ENE,73,5.8,5.8,83,0.00,CLR,,0.00,WeatherDisplay:10.37,2013-10-09 11:03:00,
2013-10-09 07:08:00,55.7,50.6,29.49,NNE,23,4.6,4.6,83,0.00,CLR,,0.00,WeatherDisplay:10.37,2013-10-09 11:08:00,
2013-10-09 07:13:00,55.7,50.6,29.49,North,11,3.5,3.5,83,0.00,CLR,,0.00,WeatherDisplay:10.37,2013-10-09 11:13:00,
2013-10-09 07:18:00,55.6,50.5,29.49,NNE,13,5.8,5.8,83,0.00,CLR,,0.00,WeatherDisplay:10.37,2013-10-09 11:18:00,
2013-10-09 07:23:00,55.7,50.6,29.49,NE,54,4.6,4.6,83,0.00,CLR,,0.00,WeatherDisplay:10.37,2013-10-09 11:23:00,
2013-10-09 07:28:00,55.7,50.3,29.49,NE,47,6.9,6.9,82,0.00,CLR,,0.00,WeatherDisplay:10.37,2013-10-09 11:28:00,
2013-10-09 07:33:00,55.7,50.3,29.49,North,11,4.0,4.0,82,0.00,CLR,,0.00,WeatherDisplay:10.37,2013-10-09 11:33:00,
2013-10-09 07:38:00,55.7,50.3,29.49,North,0,8.1,8.1,82,0.00,CLR,,0.00,WeatherDisplay:10.37,2013-10-09 11:38:00,
2013-10-09 07:43:00,55.7,50.3,29.49,North,359,6.9,6.9,82,0.00,CLR,,0.00,WeatherDisplay:10.37,2013-10-09 11:43:00,
2013-10-09 07:48:00,55.9,50.5,29.49,North,3,4.6,4.6,82,0.00,CLR,,0.00,WeatherDisplay:10.37,2013-10-09 11:48:00,
2013-10-09 07:53:00,55.9,50.5,29.49,North,353,8.1,8.1,82,0.00,CLR,,0.00,WeatherDisplay:10.37,2013-10-09 11:53:00,
2013-10-09 07:58:00,56.0,50.6,29.50,NE,40,4.6,0.0,82,0.00,CLR,,0.00,WeatherDisplay:10.37,2013-10-09 11:58:00,
2013-10-09 08:03:00,56.0,50.3,29.50,NNE,18,5.8,5.8,81,0.00,CLR,,0.00,WeatherDisplay:10.37,2013-10-09 12:03:00,
2013-10-09 08:04:00,56.0,50.3,29.50,NNW,337,3.5,3.5,81,0.00,CLR,,0.00,WeatherDisplay:10.37,2013-10-09 12:04:00,
2013-10-09 08:09:00,56.2,50.4,29.50,NE,42,7.0,7.0,81,0.00,CLR,,0.00,WeatherDisplay:10.37,2013-10-09 12:09:00,
2013-10-09 08:14:00,56.3,50.5,29.50,North,3,11.5,11.5,81,0.00,CLR,,0.00,WeatherDisplay:10.37,2013-10-09 12:14:00,
2013-10-09 08:19:00,56.3,50.5,29.50,East,96,8.1,8.1,81,0.00,CLR,,0.00,WeatherDisplay:10.37,2013-10-09 12:19:00,
2013-10-09 08:24:00,56.5,50.7,29.50,North,359,13.8,13.8,81,0.00,CLR,,0.00,WeatherDisplay:10.37,2013-10-09 12:24:00,
2013-10-09 08:29:00,56.6,50.8,29.50,NE,42,8.1,8.1,81,0.00,CLR,,0.00,WeatherDisplay:10.37,2013-10-09 12:29:00,
2013-10-09 08:34:00,56.6,50.8,29.50,North,0,10.4,10.4,81,0.00,CLR,,0.00,WeatherDisplay:10.37,2013-10-09 12:34:00,
2013-10-09 08:39:00,56.7,50.9,29.50,North,356,10.4,10.4,81,0.00,CLR,,0.00,WeatherDisplay:10.37,2013-10-09 12:39:00,
2013-10-09 08:44:00,56.7,50.9,29.50,North,0,5.8,5.8,81,0.00,CLR,,0.00,WeatherDisplay:10.37,2013-10-09 12:44:00,
2013-10-09 08:49:00,56.9,51.1,29.50,North,354,8.1,8.1,81,0.00,CLR,,0.00,WeatherDisplay:10.37,2013-10-09 12:49:00,
2013-10-09 08:54:00,56.9,51.1,29.50,North,352,8.1,8.1,81,0.00,CLR,,0.00,WeatherDisplay:10.37,2013-10-09 12:54:00,
2013-10-09 08:59:00,56.9,51.1,29.50,North,0,8.1,8.1,81,0.00,CLR,,0.00,WeatherDisplay:10.37,2013-10-09 12:59:00,
2013-10-09 09:04:00,56.9,51.1,29.50,NNE,13,4.6,4.6,81,0.00,CLR,,0.00,WeatherDisplay:10.37,2013-10-09 13:04:00,
2013-10-09 09:09:00,56.9,51.1,29.51,North,352,11.5,11.5,81,0.00,CLR,,0.00,WeatherDisplay:10.37,2013-10-09 13:09:00,
2013-10-09 09:14:00,57.0,51.2,29.51,NNE,14,8.1,8.1,81,0.00,CLR,,0.00,WeatherDisplay:10.37,2013-10-09 13:14:00,
2013-10-09 09:19:00,57.0,51.2,29.51,ENE,58,3.5,3.5,81,0.00,CLR,,0.00,WeatherDisplay:10.37,2013-10-09 13:19:00,
2013-10-09 09:24:00,57.0,51.2,29.51,NNE,23,11.5,11.5,81,0.00,CLR,,0.00,WeatherDisplay:10.37,2013-10-09 13:24:00,
2013-10-09 09:29:00,57.0,51.2,29.51,SE,134,11.5,11.5,81,0.00,CLR,,0.00,WeatherDisplay:10.37,2013-10-09 13:29:00,
2013-10-09 09:34:00,57.2,51.4,29.51,NE,42,10.4,10.4,81,0.00,CLR,,0.00,WeatherDisplay:10.37,2013-10-09 13:34:00,
2013-10-09 09:39:00,57.2,51.4,29.51,NNE,20,8.1,8.1,81,0.00,CLR,,0.00,WeatherDisplay:10.37,2013-10-09 13:39:00,
2013-10-09 09:44:00,57.2,51.4,29.51,North,357,8.1,8.1,81,0.00,CLR,,0.00,WeatherDisplay:10.37,2013-10-09 13:44:00,
2013-10-09 09:49:00,57.3,51.5,29.51,NNE,16,11.5,11.5,81,0.00,CLR,,0.00,WeatherDisplay:10.37,2013-10-09 13:49:00,
2013-10-09 09:54:00,57.3,51.5,29.52,North,357,11.0,11.0,81,0.00,CLR,,0.00,WeatherDisplay:10.37,2013-10-09 13:54:00,
2013-10-09 09:59:00,57.5,51.7,29.52,NNE,13,6.9,6.9,81,0.00,CLR,,0.00,WeatherDisplay:10.37,2013-10-09 13:59:00,
2013-10-09 10:04:00,57.5,51.7,29.52,North,359,8.1,8.1,81,0.00,CLR,,0.00,WeatherDisplay:10.37,2013-10-09 14:04:00,
2013-10-09 10:09:00,57.5,51.4,29.52,North,0,6.9,6.9,80,0.00,CLR,,0.00,WeatherDisplay:10.37,2013-10-09 14:09:00,
2013-10-09 10:14:00,57.6,51.8,29.52,NE,38,3.5,3.5,81,0.00,CLR,,0.00,WeatherDisplay:10.37,2013-10-09 14:14:00,
2013-10-09 10:19:00,57.6,51.8,29.52,NE,37,6.9,6.9,81,0.00,CLR,,0.00,WeatherDisplay:10.37,2013-10-09 14:19:00,
2013-10-09 10:24:00,57.8,52.0,29.52,NE,41,8.1,8.1,81,0.00,CLR,,0.00,WeatherDisplay:10.37,2013-10-09 14:24:00,
2013-10-09 10:29:00,57.8,52.0,29.52,WSW,254,11.5,11.5,81,0.00,CLR,,0.00,WeatherDisplay:10.37,2013-10-09 14:29:00,
2013-10-09 10:34:00,57.8,52.0,29.52,NE,51,11.5,11.5,81,0.00,CLR,,0.00,WeatherDisplay:10.37,2013-10-09 14:34:00,
2013-10-09 10:39:00,57.8,52.0,29.52,NNW,337,4.0,4.0,81,0.00,CLR,,0.00,WeatherDisplay:10.37,2013-10-09 14:39:00,
2013-10-09 10:44:00,58.0,52.2,29.52,NNE,13,3.5,3.5,81,0.00,CLR,,0.00,WeatherDisplay:10.37,2013-10-09 14:44:00,
2013-10-09 10:49:00,58.0,52.2,29.52,NNW,339,8.1,8.1,81,0.00,CLR,,0.00,WeatherDisplay:10.37,2013-10-09 14:49:00,
2013-10-09 10:54:00,58.1,52.3,29.52,NE,48,8.1,8.1,81,0.00,CLR,,0.00,WeatherDisplay:10.37,2013-10-09 14:54:00,
2013-10-09 10:59:00,58.3,52.5,29.52,North,8,10.4,10.4,81,0.00,CLR,,0.00,WeatherDisplay:10.37,2013-10-09 14:59:00,
2013-10-09 11:04:00,58.3,52.5,29.52,WNW,296,5.8,5.8,81,0.00,CLR,,0.00,WeatherDisplay:10.37,2013-10-09 15:04:00,
2013-10-09 11:09:00,58.4,52.9,29.52,NNE,25,5.8,5.8,82,0.00,CLR,,0.00,WeatherDisplay:10.37,2013-10-09 15:09:00,
2013-10-09 11:14:00,58.4,52.6,29.52,NE,44,12.7,12.7,81,0.00,CLR,,0.00,WeatherDisplay:10.37,2013-10-09 15:14:00,
2013-10-09 11:19:00,58.4,52.9,29.52,SE,126,11.5,11.5,82,0.00,CLR,,0.00,WeatherDisplay:10.37,2013-10-09 15:19:00,
2013-10-09 11:24:00,58.4,53.3,29.52,North,356,3.5,3.5,83,0.00,CLR,,0.00,WeatherDisplay:10.37,2013-10-09 15:24:00,
2013-10-09 11:29:00,58.4,53.3,29.52,NNE,27,10.4,10.4,83,0.00,CLR,,0.00,WeatherDisplay:10.37,2013-10-09 15:29:00,
2013-10-09 11:34:00,58.4,53.6,29.52,North,4,3.5,3.5,84,0.00,CLR,,0.00,WeatherDisplay:10.37,2013-10-09 15:34:00,
2013-10-09 11:39:00,58.4,53.6,29.52,North,0,8.1,8.1,84,0.00,CLR,,0.00,WeatherDisplay:10.37,2013-10-09 15:39:00,
2013-10-09 11:44:00,58.3,53.8,29.52,NNE,13,6.9,6.9,85,0.00,CLR,,0.00,WeatherDisplay:10.37,2013-10-09 15:44:00,
2013-10-09 11:49:00,58.4,54.2,29.52,NNE,17,10.4,10.4,86,0.00,CLR,,0.00,WeatherDisplay:10.37,2013-10-09 15:49:00,
2013-10-09 11:54:00,58.3,54.1,29.52,North,1,6.9,6.9,86,0.00,CLR,,0.00,WeatherDisplay:10.37,2013-10-09 15:54:00,
2013-10-09 11:59:00,58.3,54.1,29.52,North,0,8.1,8.1,86,0.00,CLR,,0.00,WeatherDisplay:10.37,2013-10-09 15:59:00,
2013-10-09 12:04:00,58.3,54.1,29.52,NNW,333,8.1,8.1,86,0.00,CLR,,0.00,WeatherDisplay:10.37,2013-10-09 16:04:00,
2013-10-09 12:09:00,58.4,54.2,29.51,NE,34,5.8,5.8,86,0.00,CLR,,0.00,WeatherDisplay:10.37,2013-10-09 16:09:00,
2013-10-09 12:14:00,58.6,54.1,29.51,NE,44,7.0,7.0,85,0.00,CLR,,0.00,WeatherDisplay:10.37,2013-10-09 16:14:00,
2013-10-09 12:19:00,58.7,53.9,29.51,NE,44,12.7,12.7,84,0.00,CLR,,0.00,WeatherDisplay:10.37,2013-10-09 16:19:00,
2013-10-09 12:24:00,58.9,53.7,29.51,North,11,3.5,3.5,83,0.00,CLR,,0.00,WeatherDisplay:10.37,2013-10-09 16:24:00,
2013-10-09 12:29:00,59.2,54.0,29.51,NNW,333,5.8,5.8,83,0.00,CLR,,0.00,WeatherDisplay:10.37,2013-10-09 16:29:00,
2013-10-09 12:34:00,59.5,54.0,29.51,NNW,328,5.8,6.7,82,0.00,CLR,,0.00,WeatherDisplay:10.37,2013-10-09 16:34:00,
2013-10-09 12:39:00,59.6,53.8,29.50,NNE,17,11.5,11.5,81,0.00,CLR,,0.00,WeatherDisplay:10.37,2013-10-09 16:39:00,
2013-10-09 12:44:00,59.8,54.0,29.50,North,357,7.0,7.9,81,0.00,CLR,,0.00,WeatherDisplay:10.37,2013-10-09 16:44:00,
2013-10-09 12:49:00,59.8,53.6,29.50,NE,35,11.5,11.5,80,0.00,CLR,,0.00,WeatherDisplay:10.37,2013-10-09 16:49:00,
2013-10-09 12:54:00,59.8,54.0,29.50,NNE,32,5.0,5.0,81,0.00,CLR,,0.00,WeatherDisplay:10.37,2013-10-09 16:54:00,
2013-10-09 12:59:00,59.8,53.6,29.50,North,3,11.5,11.5,80,0.00,CLR,,0.00,WeatherDisplay:10.37,2013-10-09 16:59:00,
2013-10-09 13:04:00,59.8,54.0,29.50,North,11,8.1,8.1,81,0.00,CLR,,0.00,WeatherDisplay:10.37,2013-10-09 17:04:00,
2013-10-09 13:09:00,59.8,53.6,29.50,ENE,68,8.1,8.1,80,0.00,CLR,,0.00,WeatherDisplay:10.37,2013-10-09 17:09:00,
2013-10-09 13:14:00,59.9,53.7,29.50,North,0,6.9,6.9,80,0.00,CLR,,0.00,WeatherDisplay:10.37,2013-10-09 17:14:00,
2013-10-09 13:19:00,59.9,53.7,29.50,North,8,8.0,8.0,80,0.00,CLR,,0.00,WeatherDisplay:10.37,2013-10-09 17:19:00,
2013-10-09 13:24:00,59.9,53.7,29.50,NE,40,13.8,13.8,80,0.00,CLR,,0.00,WeatherDisplay:10.37,2013-10-09 17:24:00,
2013-10-09 13:29:00,59.9,53.7,29.50,North,0,6.9,6.9,80,0.00,CLR,,0.00,WeatherDisplay:10.37,2013-10-09 17:29:00,
2013-10-09 13:34:00,59.8,53.6,29.50,North,0,11.5,11.5,80,0.00,CLR,,0.00,WeatherDisplay:10.37,2013-10-09 17:34:00,
2013-10-09 13:39:00,59.8,53.6,29.49,NE,40,2.3,2.3,80,0.00,CLR,,0.00,WeatherDisplay:10.37,2013-10-09 17:39:00,
2013-10-09 13:44:00,59.8,53.6,29.49,North,0,11.5,11.5,80,0.00,CLR,,0.00,WeatherDisplay:10.37,2013-10-09 17:44:00,
2013-10-09 13:49:00,59.8,53.6,29.49,NNE,31,10.4,10.4,80,0.00,CLR,,0.00,WeatherDisplay:10.37,2013-10-09 17:49:00,
2013-10-09 13:54:00,59.6,53.8,29.49,NNE,20,11.5,11.5,81,0.00,CLR,,0.00,WeatherDisplay:10.37,2013-10-09 17:54:00,
2013-10-09 13:59:00,59.6,53.8,29.49,North,353,10.4,10.4,81,0.00,CLR,,0.00,WeatherDisplay:10.37,2013-10-09 17:59:00,
2013-10-09 14:04:00,59.5,53.7,29.49,North,357,8.1,8.1,81,0.00,CLR,,0.00,WeatherDisplay:10.37,2013-10-09 18:04:00,
2013-10-09 14:09:00,59.5,53.7,29.49,NNE,25,11.0,11.0,81,0.00,CLR,,0.00,WeatherDisplay:10.37,2013-10-09 18:09:00,
2013-10-09 14:14:00,59.3,53.5,29.49,North,0,8.1,8.1,81,0.00,CLR,,0.00,WeatherDisplay:10.37,2013-10-09 18:14:00,
2013-10-09 14:19:00,59.3,53.8,29.49,NNE,13,3.5,3.5,82,0.00,CLR,,0.00,WeatherDisplay:10.37,2013-10-09 18:19:00,
2013-10-09 14:25:00,59.3,53.8,29.49,NNE,25,11.5,11.5,82,0.00,CLR,,0.00,WeatherDisplay:10.37,2013-10-09 18:25:00,
2013-10-09 14:30:00,59.2,53.7,29.49,ENE,75,10.4,10.4,82,0.00,CLR,,0.00,WeatherDisplay:10.37,2013-10-09 18:30:00,
2013-10-09 14:35:00,59.2,53.7,29.49,NE,49,4.6,4.6,82,0.00,CLR,,0.00,WeatherDisplay:10.37,2013-10-09 18:35:00,
2013-10-09 14:40:00,59.2,53.7,29.49,NNE,31,11.5,11.5,82,0.00,CLR,,0.00,WeatherDisplay:10.37,2013-10-09 18:40:00,
2013-10-09 14:45:00,59.2,53.7,29.49,North,349,6.9,6.9,82,0.00,CLR,,0.00,WeatherDisplay:10.37,2013-10-09 18:45:00,
2013-10-09 14:50:00,59.2,53.7,29.49,NW,313,8.1,8.1,82,0.00,CLR,,0.00,WeatherDisplay:10.37,2013-10-09 18:50:00,
2013-10-09 14:55:00,59.2,53.7,29.49,ENE,65,6.9,6.9,82,0.00,CLR,,0.00,WeatherDisplay:10.37,2013-10-09 18:55:00,
2013-10-09 15:00:00,59.2,53.7,29.49,NNE,23,11.5,11.5,82,0.00,CLR,,0.00,WeatherDisplay:10.37,2013-10-09 19:00:00,
2013-10-09 15:05:00,59.2,53.4,29.49,NNE,20,11.5,11.5,81,0.00,CLR,,0.00,WeatherDisplay:10.37,2013-10-09 19:05:00,
2013-10-09 15:10:00,59.2,53.7,29.49,NNW,332,11.5,11.5,82,0.00,CLR,,0.00,WeatherDisplay:10.37,2013-10-09 19:10:00,
2013-10-09 15:15:00,59.2,53.4,29.49,NNE,18,9.2,9.2,81,0.00,CLR,,0.00,WeatherDisplay:10.37,2013-10-09 19:15:00,
2013-10-09 15:20:00,59.0,53.2,29.49,North,352,6.0,6.0,81,0.00,CLR,,0.00,WeatherDisplay:10.37,2013-10-09 19:20:00,
2013-10-09 15:25:00,59.0,53.2,29.49,ENE,61,5.8,5.8,81,0.00,CLR,,0.00,WeatherDisplay:10.37,2013-10-09 19:25:00,
2013-10-09 15:30:00,59.0,53.2,29.49,West,267,5.8,5.8,81,0.00,CLR,,0.00,WeatherDisplay:10.37,2013-10-09 19:30:00,
2013-10-09 15:35:00,58.9,53.1,29.49,NE,54,8.1,8.1,81,0.00,CLR,,0.00,WeatherDisplay:10.37,2013-10-09 19:35:00,
2013-10-09 15:40:00,58.9,53.1,29.48,NE,55,3.5,3.5,81,0.00,CLR,,0.00,WeatherDisplay:10.37,2013-10-09 19:40:00,
2013-10-09 15:45:00,58.9,53.1,29.48,ENE,72,8.1,8.1,81,0.00,CLR,,0.00,WeatherDisplay:10.37,2013-10-09 19:45:00,
2013-10-09 15:50:00,58.9,53.1,29.48,NE,47,6.9,6.9,81,0.00,CLR,,0.00,WeatherDisplay:10.37,2013-10-09 19:50:00,
2013-10-09 15:55:00,58.7,52.9,29.48,North,0,16.1,16.1,81,0.00,CLR,,0.00,WeatherDisplay:10.37,2013-10-09 19:55:00,
2013-10-09 16:00:00,58.7,53.2,29.48,East,79,6.9,6.9,82,0.00,CLR,,0.00,WeatherDisplay:10.37,2013-10-09 20:00:00,
2013-10-09 16:05:00,58.7,53.2,29.48,NNE,28,11.5,11.5,82,0.00,CLR,,0.00,WeatherDisplay:10.37,2013-10-09 20:05:00,
2013-10-09 16:10:00,58.6,53.1,29.47,NNE,31,11.5,11.5,82,0.00,CLR,,0.00,WeatherDisplay:10.37,2013-10-09 20:10:00,
2013-10-09 16:15:00,58.6,53.5,29.47,North,0,11.5,11.5,83,0.00,CLR,,0.00,WeatherDisplay:10.37,2013-10-09 20:15:00,
2013-10-09 16:20:00,58.4,52.9,29.47,North,350,18.4,18.4,82,0.00,CLR,,0.00,WeatherDisplay:10.37,2013-10-09 20:20:00,
2013-10-09 16:25:00,58.3,53.2,29.47,North,357,12.7,12.7,83,0.00,CLR,,0.00,WeatherDisplay:10.37,2013-10-09 20:25:00,
2013-10-09 16:30:00,58.1,53.0,29.47,NNE,31,12.7,12.7,83,0.00,CLR,,0.00,WeatherDisplay:10.37,2013-10-09 20:30:00,
2013-10-09 16:35:00,58.0,52.9,29.47,NNE,28,16.1,16.1,83,0.00,CLR,,0.00,WeatherDisplay:10.37,2013-10-09 20:35:00,
2013-10-09 16:40:00,57.8,53.0,29.47,NE,55,12.7,12.7,84,0.00,CLR,,0.00,WeatherDisplay:10.37,2013-10-09 20:40:00,
2013-10-09 16:45:00,57.6,53.4,29.47,North,352,8.1,8.1,86,0.00,CLR,,0.00,WeatherDisplay:10.37,2013-10-09 20:45:00,
2013-10-09 16:50:00,57.6,53.4,29.47,NNE,20,17.0,17.0,86,0.00,CLR,,0.00,WeatherDisplay:10.37,2013-10-09 20:50:00,
2013-10-09 16:55:00,57.5,53.3,29.47,NE,37,11.5,11.5,86,0.00,CLR,,0.00,WeatherDisplay:10.37,2013-10-09 20:55:00,
2013-10-09 17:00:00,57.3,53.5,29.47,NNE,23,4.6,5.5,87,0.00,CLR,,0.00,WeatherDisplay:10.37,2013-10-09 21:00:00,
2013-10-09 17:05:00,57.2,53.4,29.47,North,4,8.1,8.1,87,0.00,CLR,,0.00,WeatherDisplay:10.37,2013-10-09 21:05:00,
2013-10-09 17:10:00,57.2,53.7,29.47,NNE,32,11.5,11.5,88,0.00,CLR,,0.00,WeatherDisplay:10.37,2013-10-09 21:10:00,
2013-10-09 17:15:00,57.2,53.7,29.47,NNE,14,10.4,10.4,88,0.00,CLR,,0.00,WeatherDisplay:10.37,2013-10-09 21:15:00,
2013-10-09 17:20:00,57.2,53.7,29.47,NNE,16,10.4,10.4,88,0.00,CLR,,0.00,WeatherDisplay:10.37,2013-10-09 21:20:00,
2013-10-09 17:25:00,57.0,53.8,29.47,NE,55,12.7,12.7,89,0.00,CLR,,0.00,WeatherDisplay:10.37,2013-10-09 21:25:00,
2013-10-09 17:30:00,56.9,53.7,29.47,NNE,14,11.5,11.5,89,0.00,CLR,,0.00,WeatherDisplay:10.37,2013-10-09 21:30:00,
2013-10-09 17:35:00,56.9,54.0,29.47,East,80,8.1,8.1,90,0.00,CLR,,0.00,WeatherDisplay:10.37,2013-10-09 21:35:00,
2013-10-09 17:40:00,56.7,53.8,29.47,North,0,5.0,5.0,90,0.00,CLR,,0.00,WeatherDisplay:10.37,2013-10-09 21:40:00,
2013-10-09 17:45:00,56.6,54.0,29.47,North,6,12.7,12.7,91,0.00,CLR,,0.01,WeatherDisplay:10.37,2013-10-09 21:45:00,
2013-10-09 17:50:00,56.6,54.0,29.47,North,0,17.3,17.3,91,0.01,RA,,0.01,WeatherDisplay:10.37,2013-10-09 21:50:00,
2013-10-09 17:55:00,56.5,54.2,29.46,NW,326,10.4,10.4,92,0.01,RA,,0.01,WeatherDisplay:10.37,2013-10-09 21:55:00,
2013-10-09 18:00:00,56.5,54.2,29.46,ENE,71,4.6,5.0,92,0.01,CLR,,0.01,WeatherDisplay:10.37,2013-10-09 22:00:00,
2013-10-09 18:05:00,56.5,54.2,29.46,NNE,18,11.5,11.5,92,0.01,CLR,,0.01,WeatherDisplay:10.37,2013-10-09 22:05:00,
2013-10-09 18:10:00,56.5,54.2,29.47,NE,37,9.2,9.2,92,0.01,CLR,,0.01,WeatherDisplay:10.37,2013-10-09 22:10:00,
2013-10-09 18:15:00,56.5,54.2,29.47,NE,37,8.1,8.1,92,0.01,CLR,,0.01,WeatherDisplay:10.37,2013-10-09 22:15:00,
2013-10-09 18:20:00,56.3,54.3,29.47,NNE,17,12.7,12.7,93,0.01,CLR,,0.01,WeatherDisplay:10.37,2013-10-09 22:20:00,
2013-10-09 18:25:00,56.3,54.3,29.47,NE,48,6.9,6.9,93,0.01,CLR,,0.01,WeatherDisplay:10.37,2013-10-09 22:25:00,
2013-10-09 18:30:00,56.3,54.3,29.47,North,356,5.0,5.0,93,0.01,CLR,,0.01,WeatherDisplay:10.37,2013-10-09 22:30:00,
2013-10-09 18:35:00,56.3,54.3,29.47,North,357,6.0,6.0,93,0.01,CLR,,0.01,WeatherDisplay:10.37,2013-10-09 22:35:00,
2013-10-09 18:40:00,56.3,54.3,29.47,North,353,5.8,5.8,93,0.01,CLR,,0.01,WeatherDisplay:10.37,2013-10-09 22:40:00,
2013-10-09 18:45:00,56.2,54.2,29.47,ENE,66,8.1,8.1,93,0.01,CLR,,0.01,WeatherDisplay:10.37,2013-10-09 22:45:00,
2013-10-09 18:50:00,56.2,54.2,29.47,North,359,8.1,8.1,93,0.01,RA,,0.02,WeatherDisplay:10.37,2013-10-09 22:50:00,
2013-10-09 18:55:00,56.0,54.3,29.47,NNE,28,5.8,5.8,94,0.01,RA,,0.02,WeatherDisplay:10.37,2013-10-09 22:55:00,
2013-10-09 19:00:00,56.0,54.3,29.47,ENE,62,4.6,4.6,94,0.01,CLR,,0.02,WeatherDisplay:10.37,2013-10-09 23:00:00,
2013-10-09 19:05:00,55.9,54.2,29.47,NE,34,6.9,6.9,94,0.01,CLR,,0.02,WeatherDisplay:10.37,2013-10-09 23:05:00,
2013-10-09 19:10:00,55.9,54.2,29.47,NNE,23,10.4,10.4,94,0.01,CLR,,0.02,WeatherDisplay:10.37,2013-10-09 23:10:00,
2013-10-09 19:15:00,55.9,54.5,29.47,NNE,27,11.5,11.5,95,0.01,CLR,,0.02,WeatherDisplay:10.37,2013-10-09 23:15:00,
2013-10-09 19:20:00,55.9,54.5,29.47,NE,45,4.6,4.6,95,0.01,CLR,,0.02,WeatherDisplay:10.37,2013-10-09 23:20:00,
2013-10-09 19:25:00,55.7,54.3,29.46,NNW,330,8.1,9.0,95,0.01,CLR,,0.02,WeatherDisplay:10.37,2013-10-09 23:25:00,
2013-10-09 19:30:00,55.7,54.3,29.46,North,4,5.8,5.8,95,0.01,CLR,,0.02,WeatherDisplay:10.37,2013-10-09 23:30:00,
2013-10-09 19:35:00,55.7,54.3,29.46,NE,40,5.0,5.7,95,0.01,CLR,,0.02,WeatherDisplay:10.37,2013-10-09 23:35:00,
2013-10-09 19:40:00,55.7,54.3,29.46,ESE,106,5.8,5.8,95,0.01,CLR,,0.02,WeatherDisplay:10.37,2013-10-09 23:40:00,
2013-10-09 19:45:00,55.7,54.3,29.46,NE,37,6.9,6.9,95,0.01,CLR,,0.02,WeatherDisplay:10.37,2013-10-09 23:45:00,
2013-10-09 19:50:00,55.7,54.3,29.46,East,95,9.2,9.2,95,0.00,CLR,,0.02,WeatherDisplay:10.37,2013-10-09 23:50:00,
2013-10-09 19:55:00,55.7,54.3,29.46,North,8,8.1,8.1,95,0.00,CLR,,0.02,WeatherDisplay:10.37,2013-10-09 23:55:00,
2013-10-09 20:00:00,55.7,54.3,29.46,North,0,4.6,5.0,95,0.00,CLR,,0.02,WeatherDisplay:10.37,2013-10-10 00:00:00,
2013-10-09 20:05:00,55.6,54.2,29.46,North,0,3.5,3.5,95,0.00,CLR,,0.02,WeatherDisplay:10.37,2013-10-10 00:05:00,
2013-10-09 20:10:00,55.6,54.2,29.46,North,359,8.1,8.1,95,0.00,CLR,,0.02,WeatherDisplay:10.37,2013-10-10 00:10:00,
2013-10-09 20:15:00,55.6,54.2,29.46,NNW,337,11.5,11.5,95,0.00,CLR,,0.02,WeatherDisplay:10.37,2013-10-10 00:15:00,
2013-10-09 20:20:00,55.4,54.0,29.46,North,352,6.9,7.0,95,0.00,CLR,,0.02,WeatherDisplay:10.37,2013-10-10 00:20:00,
2013-10-09 20:25:00,55.4,54.0,29.46,North,357,5.0,5.0,95,0.01,RA,,0.03,WeatherDisplay:10.37,2013-10-10 00:25:00,
2013-10-09 20:30:00,55.3,53.9,29.46,NE,45,6.9,6.9,95,0.01,RA,,0.03,WeatherDisplay:10.37,2013-10-10 00:30:00,
2013-10-09 20:35:00,55.3,53.9,29.46,North,6,2.3,2.3,95,0.01,,,0.03,WeatherDisplay:10.37,2013-10-10 00:35:00,
2013-10-09 20:40:00,55.3,53.9,29.46,North,350,6.0,6.0,95,0.01,CLR,,0.03,WeatherDisplay:10.37,2013-10-10 00:40:00,
2013-10-09 20:46:00,55.3,53.9,29.46,North,349,8.1,8.1,95,0.01,CLR,,0.03,WeatherDisplay:10.37,2013-10-10 00:46:00,
2013-10-09 20:51:00,55.1,53.7,29.46,NNE,16,11.5,11.5,95,0.01,CLR,,0.03,WeatherDisplay:10.37,2013-10-10 00:51:00,
2013-10-09 20:56:00,55.1,54.0,29.46,North,353,10.4,10.4,96,0.04,RA,,0.06,WeatherDisplay:10.37,2013-10-10 00:56:00,
2013-10-09 21:01:00,55.1,54.0,29.46,NNE,21,6.9,6.9,96,0.04,RA,,0.06,WeatherDisplay:10.37,2013-10-10 01:01:00,
2013-10-09 21:06:00,55.0,53.9,29.46,NNE,16,4.6,5.2,96,0.05,RA,,0.07,WeatherDisplay:10.37,2013-10-10 01:06:00,
2013-10-09 21:11:00,55.0,53.9,29.45,NNE,16,7.0,7.0,96,0.05,RA,,0.07,WeatherDisplay:10.37,2013-10-10 01:11:00,
2013-10-09 21:16:00,55.0,53.9,29.45,NE,52,11.0,11.0,96,0.05,,,0.07,WeatherDisplay:10.37,2013-10-10 01:16:00,
2013-10-09 21:21:00,54.8,53.7,29.45,North,359,6.9,6.9,96,0.06,RA,,0.08,WeatherDisplay:10.37,2013-10-10 01:21:00,
2013-10-09 21:26:00,54.8,53.7,29.45,North,354,17.3,17.3,96,0.06,RA,,0.09,WeatherDisplay:10.37,2013-10-10 01:26:00,
2013-10-09 21:31:00,54.8,53.7,29.45,NNE,13,11.5,11.5,96,0.07,RA,,0.10,WeatherDisplay:10.37,2013-10-10 01:31:00,
2013-10-09 21:36:00,54.8,54.0,29.45,NNE,30,16.1,16.1,97,0.08,RA,,0.11,WeatherDisplay:10.37,2013-10-10 01:36:00,
2013-10-09 21:41:00,54.7,53.9,29.45,North,353,10.4,10.4,97,0.09,RA,,0.12,WeatherDisplay:10.37,2013-10-10 01:41:00,
2013-10-09 21:46:00,54.7,53.9,29.45,NNE,27,12.0,12.0,97,0.10,RA,,0.14,WeatherDisplay:10.37,2013-10-10 01:46:00,
2013-10-09 21:51:00,54.7,53.9,29.45,NNE,16,11.0,11.0,97,0.11,RA,,0.14,WeatherDisplay:10.37,2013-10-10 01:51:00,
2013-10-09 21:56:00,54.5,53.7,29.45,East,80,11.5,11.5,97,0.09,RA,,0.15,WeatherDisplay:10.37,2013-10-10 01:56:00,
2013-10-09 22:01:00,54.5,53.7,29.45,North,8,14.0,14.0,97,0.09,RA,,0.15,WeatherDisplay:10.37,2013-10-10 02:01:00,
2013-10-09 22:06:00,54.5,53.7,29.45,NNE,20,8.1,8.1,97,0.09,RA,,0.16,WeatherDisplay:10.37,2013-10-10 02:06:00,
2013-10-09 22:11:00,54.5,53.7,29.45,NE,42,8.1,8.1,97,0.09,RA,,0.16,WeatherDisplay:10.37,2013-10-10 02:11:00,
2013-10-09 22:16:00,54.5,53.7,29.45,NNE,14,6.9,6.9,97,0.09,CLR,,0.16,WeatherDisplay:10.37,2013-10-10 02:16:00,
2013-10-09 22:21:00,54.4,53.6,29.45,NNW,330,11.0,11.0,97,0.08,CLR,,0.16,WeatherDisplay:10.37,2013-10-10 02:21:00,
2013-10-09 22:26:00,54.4,53.6,29.44,NE,41,6.9,6.9,97,0.07,CLR,,0.16,WeatherDisplay:10.37,2013-10-10 02:26:00,
2013-10-09 22:31:00,54.4,53.6,29.44,NNE,13,12.7,12.7,97,0.06,CLR,,0.16,WeatherDisplay:10.37,2013-10-10 02:31:00,
2013-10-09 22:36:00,54.2,53.6,29.44,North,0,6.9,6.9,98,0.05,CLR,,0.16,WeatherDisplay:10.37,2013-10-10 02:36:00,
2013-10-09 22:41:00,54.2,53.6,29.44,North,0,8.1,8.1,98,0.04,CLR,,0.16,WeatherDisplay:10.37,2013-10-10 02:41:00,
2013-10-09 22:46:00,54.2,53.6,29.44,NE,35,11.5,11.5,98,0.03,CLR,,0.16,WeatherDisplay:10.37,2013-10-10 02:46:00,
2013-10-09 22:51:00,54.2,53.6,29.44,North,0,4.6,4.6,98,0.02,CLR,,0.16,WeatherDisplay:10.37,2013-10-10 02:51:00,
2013-10-09 22:56:00,54.2,53.6,29.44,North,1,8.1,8.1,98,0.01,CLR,,0.16,WeatherDisplay:10.37,2013-10-10 02:56:00,
2013-10-09 23:01:00,54.2,53.6,29.44,North,352,8.1,8.1,98,0.01,CLR,,0.16,WeatherDisplay:10.37,2013-10-10 03:01:00,
2013-10-09 23:06:00,54.2,53.6,29.44,NNW,342,8.1,8.1,98,0.00,CLR,,0.16,WeatherDisplay:10.37,2013-10-10 03:06:00,
2013-10-09 23:11:00,54.1,53.5,29.43,NNW,333,6.9,6.9,98,0.00,CLR,,0.16,WeatherDisplay:10.37,2013-10-10 03:11:00,
2013-10-09 23:16:00,54.1,53.5,29.43,NNW,329,8.1,8.1,98,0.00,CLR,,0.16,WeatherDisplay:10.37,2013-10-10 03:16:00,
2013-10-09 23:21:00,54.1,53.5,29.43,NNE,28,6.9,6.9,98,0.00,CLR,,0.16,WeatherDisplay:10.37,2013-10-10 03:21:00,
2013-10-09 23:26:00,54.1,53.5,29.43,NNE,14,11.5,11.5,98,0.00,CLR,,0.16,WeatherDisplay:10.37,2013-10-10 03:26:00,
2013-10-09 23:31:00,54.1,53.5,29.43,NNE,31,8.1,8.1,98,0.00,CLR,,0.16,WeatherDisplay:10.37,2013-10-10 03:31:00,
2013-10-09 23:36:00,53.9,53.3,29.43,North,359,6.9,6.9,98,0.00,CLR,,0.16,WeatherDisplay:10.37,2013-10-10 03:36:00,
2013-10-09 23:41:00,53.9,53.3,29.43,North,0,11.5,11.5,98,0.00,CLR,,0.16,WeatherDisplay:10.37,2013-10-10 03:41:00,
2013-10-09 23:46:00,53.9,53.3,29.43,North,0,11.5,11.5,98,0.00,CLR,,0.16,WeatherDisplay:10.37,2013-10-10 03:46:00,
2013-10-09 23:51:00,53.9,53.3,29.43,North,0,8.1,8.1,98,0.00,CLR,,0.16,WeatherDisplay:10.37,2013-10-10 03:51:00,
2013-10-09 23:56:00,53.8,53.2,29.42,NW,311,11.5,11.5,98,0.00,CLR,,0.16,WeatherDisplay:10.37,2013-10-10 03:56:00,